sensor_id;sensor_type;location;lat;lon;timestamp;pressure;altitude;pressure_sealevel;temperature
40624;BMP280;26325;48.594;11.650;2022-07-01T00:02:06;96362.53;;;21.32
40624;BMP280;26325;48.594;11.650;2022-07-01T00:04:37;96378.41;;;21.36
40624;BMP280;26325;48.594;11.650;2022-07-01T00:07:04;96379.38;;;21.39
40624;BMP280;26325;48.594;11.650;2022-07-01T00:09:32;96390.97;;;21.14
40624;BMP280;26325;48.594;11.650;2022-07-01T00:11:58;96398.81;;;20.97
40624;BMP280;26325;48.594;11.650;2022-07-01T00:14:23;96404.34;;;20.79
40624;BMP280;26325;48.594;11.650;2022-07-01T00:16:50;96401.53;;;20.67
40624;BMP280;26325;48.594;11.650;2022-07-01T00:19:16;96414.63;;;20.67
40624;BMP280;26325;48.594;11.650;2022-07-01T00:21:44;96416.94;;;20.61
40624;BMP280;26325;48.594;11.650;2022-07-01T00:24:13;96441.75;;;20.46
40624;BMP280;26325;48.594;11.650;2022-07-01T00:26:38;96427.31;;;20.27
40624;BMP280;26325;48.594;11.650;2022-07-01T00:29:09;96431.19;;;20.30
40624;BMP280;26325;48.594;11.650;2022-07-01T00:31:36;96450.38;;;20.17
40624;BMP280;26325;48.594;11.650;2022-07-01T00:34:05;96457.41;;;20.30
40624;BMP280;26325;48.594;11.650;2022-07-01T00:36:34;96436.25;;;20.26
40624;BMP280;26325;48.594;11.650;2022-07-01T00:38:59;96441.16;;;20.20
40624;BMP280;26325;48.594;11.650;2022-07-01T00:41:29;96445.19;;;19.96
40624;BMP280;26325;48.594;11.650;2022-07-01T00:43:56;96451.56;;;20.03
40624;BMP280;26325;48.594;11.650;2022-07-01T00:46:26;96445.75;;;19.84
40624;BMP280;26325;48.594;11.650;2022-07-01T00:48:58;96438.50;;;19.90
40624;BMP280;26325;48.594;11.650;2022-07-01T00:51:28;96446.81;;;19.84
40624;BMP280;26325;48.594;11.650;2022-07-01T00:53:54;96442.78;;;19.78
40624;BMP280;26325;48.594;11.650;2022-07-01T00:56:19;96443.97;;;19.72
40624;BMP280;26325;48.594;11.650;2022-07-01T00:58:45;96448.59;;;19.75
40624;BMP280;26325;48.594;11.650;2022-07-01T01:01:13;96450.75;;;19.73
40624;BMP280;26325;48.594;11.650;2022-07-01T01:03:43;96449.44;;;19.62
40624;BMP280;26325;48.594;11.650;2022-07-01T01:06:11;96447.66;;;19.71
40624;BMP280;26325;48.594;11.650;2022-07-01T01:08:42;96452.59;;;19.72
40624;BMP280;26325;48.594;11.650;2022-07-01T01:11:10;96454.66;;;19.62
40624;BMP280;26325;48.594;11.650;2022-07-01T01:13:38;96456.44;;;19.53
40624;BMP280;26325;48.594;11.650;2022-07-01T01:16:20;96462.44;;;19.67
40624;BMP280;26325;48.594;11.650;2022-07-01T01:18:49;96463.00;;;19.64
40624;BMP280;26325;48.594;11.650;2022-07-01T01:21:19;96463.00;;;19.64
40624;BMP280;26325;48.594;11.650;2022-07-01T01:23:48;96454.66;;;19.62
40624;BMP280;26325;48.594;11.650;2022-07-01T01:26:21;96446.38;;;19.60
40624;BMP280;26325;48.594;11.650;2022-07-01T01:28:57;96437.25;;;19.58
40624;BMP280;26325;48.594;11.650;2022-07-01T01:31:31;96435.47;;;19.53
40624;BMP280;26325;48.594;11.650;2022-07-01T01:33:59;96448.78;;;19.57
40624;BMP280;26325;48.594;11.650;2022-07-01T01:36:34;96454.13;;;19.52
40624;BMP280;26325;48.594;11.650;2022-07-01T01:39:00;96444.03;;;19.45
40624;BMP280;26325;48.594;11.650;2022-07-01T01:41:35;96451.03;;;19.50
40624;BMP280;26325;48.594;11.650;2022-07-01T01:44:03;96450.19;;;19.41
40624;BMP280;26325;48.594;11.650;2022-07-01T01:46:28;96456.34;;;19.58
40624;BMP280;26325;48.594;11.650;2022-07-01T01:49:02;96453.75;;;19.45
40624;BMP280;26325;48.594;11.650;2022-07-01T01:51:28;96459.88;;;19.41
40624;BMP280;26325;48.594;11.650;2022-07-01T01:54:09;96469.66;;;19.48
40624;BMP280;26325;48.594;11.650;2022-07-01T01:56:38;96462.69;;;19.44
40624;BMP280;26325;48.594;11.650;2022-07-01T01:59:04;96462.06;;;19.60
40624;BMP280;26325;48.594;11.650;2022-07-01T02:01:32;96457.63;;;19.47
40624;BMP280;26325;48.594;11.650;2022-07-01T02:04:00;96468.81;;;19.40
40624;BMP280;26325;48.594;11.650;2022-07-01T02:06:26;96462.09;;;19.47
40624;BMP280;26325;48.594;11.650;2022-07-01T02:08:53;96463.44;;;19.45
40624;BMP280;26325;48.594;11.650;2022-07-01T02:11:24;96471.19;;;19.49
40624;BMP280;26325;48.594;11.650;2022-07-01T02:13:52;96485.28;;;19.40
40624;BMP280;26325;48.594;11.650;2022-07-01T02:16:18;96487.41;;;19.51
40624;BMP280;26325;48.594;11.650;2022-07-01T02:18:50;96484.38;;;19.45
40624;BMP280;26325;48.594;11.650;2022-07-01T02:21:16;96479.53;;;19.51
40624;BMP280;26325;48.594;11.650;2022-07-01T02:23:42;96483.44;;;19.41
40624;BMP280;26325;48.594;11.650;2022-07-01T02:26:08;96488.94;;;19.52
40624;BMP280;26325;48.594;11.650;2022-07-01T02:28:33;96482.25;;;19.46
40624;BMP280;26325;48.594;11.650;2022-07-01T02:31:04;96485.94;;;19.59
40624;BMP280;26325;48.594;11.650;2022-07-01T02:33:34;96481.63;;;19.63
40624;BMP280;26325;48.594;11.650;2022-07-01T02:36:02;96481.63;;;19.63
40624;BMP280;26325;48.594;11.650;2022-07-01T02:38:30;96499.19;;;19.62
40624;BMP280;26325;48.594;11.650;2022-07-01T02:40:55;96495.81;;;19.62
40624;BMP280;26325;48.594;11.650;2022-07-01T02:43:22;96504.19;;;19.50
40624;BMP280;26325;48.594;11.650;2022-07-01T02:46:01;96510.88;;;19.56
40624;BMP280;26325;48.594;11.650;2022-07-01T02:48:30;96510.97;;;19.51
40624;BMP280;26325;48.594;11.650;2022-07-01T02:50:58;96508.94;;;19.48
40624;BMP280;26325;48.594;11.650;2022-07-01T02:53:27;96496.06;;;19.39
40624;BMP280;26325;48.594;11.650;2022-07-01T02:55:53;96515.06;;;19.44
40624;BMP280;26325;48.594;11.650;2022-07-01T02:58:24;96519.19;;;19.24
40624;BMP280;26325;48.594;11.650;2022-07-01T03:00:50;96523.66;;;19.23
40624;BMP280;26325;48.594;11.650;2022-07-01T03:03:18;96529.63;;;19.37
40624;BMP280;26325;48.594;11.650;2022-07-01T03:05:44;96539.50;;;19.40
40624;BMP280;26325;48.594;11.650;2022-07-01T03:08:13;96543.41;;;19.29
40624;BMP280;26325;48.594;11.650;2022-07-01T03:10:39;96555.06;;;19.23
40624;BMP280;26325;48.594;11.650;2022-07-01T03:13:10;96556.13;;;19.35
40624;BMP280;26325;48.594;11.650;2022-07-01T03:15:38;96556.00;;;19.27
40624;BMP280;26325;48.594;11.650;2022-07-01T03:18:04;96559.44;;;19.14
40624;BMP280;26325;48.594;11.650;2022-07-01T03:20:31;96563.47;;;19.20
40624;BMP280;26325;48.594;11.650;2022-07-01T03:22:57;96561.28;;;19.14
40624;BMP280;26325;48.594;11.650;2022-07-01T03:25:25;96563.41;;;19.25
40624;BMP280;26325;48.594;11.650;2022-07-01T03:27:50;96570.00;;;19.23
40624;BMP280;26325;48.594;11.650;2022-07-01T03:30:16;96568.16;;;19.10
40624;BMP280;26325;48.594;11.650;2022-07-01T03:32:45;96567.84;;;19.11
40624;BMP280;26325;48.594;11.650;2022-07-01T03:35:10;96569.00;;;19.19
40624;BMP280;26325;48.594;11.650;2022-07-01T03:38:02;96564.09;;;19.17
40624;BMP280;26325;48.594;11.650;2022-07-01T03:40:33;96574.06;;;19.15
40624;BMP280;26325;48.594;11.650;2022-07-01T03:43:00;96570.28;;;19.21
40624;BMP280;26325;48.594;11.650;2022-07-01T03:45:28;96558.63;;;19.27
40624;BMP280;26325;48.594;11.650;2022-07-01T03:47:57;96563.00;;;19.31
40624;BMP280;26325;48.594;11.650;2022-07-01T03:50:26;96557.34;;;19.38
40624;BMP280;26325;48.594;11.650;2022-07-01T03:52:56;96555.03;;;19.36
40624;BMP280;26325;48.594;11.650;2022-07-01T03:55:41;96575.78;;;19.33
40624;BMP280;26325;48.594;11.650;2022-07-01T03:58:09;96566.75;;;19.39
40624;BMP280;26325;48.594;11.650;2022-07-01T04:00:37;96570.63;;;19.41
40624;BMP280;26325;48.594;11.650;2022-07-01T04:05:33;96566.47;;;19.40
40624;BMP280;26325;48.594;11.650;2022-07-01T04:08:03;96566.28;;;19.37
40624;BMP280;26325;48.594;11.650;2022-07-01T04:10:33;96567.63;;;19.47
40624;BMP280;26325;48.594;11.650;2022-07-01T04:13:02;96574.13;;;19.37
40624;BMP280;26325;48.594;11.650;2022-07-01T04:15:28;96560.25;;;19.36
40624;BMP280;26325;48.594;11.650;2022-07-01T04:17:54;96569.22;;;19.35
40624;BMP280;26325;48.594;11.650;2022-07-01T04:20:20;96562.09;;;19.36
40624;BMP280;26325;48.594;11.650;2022-07-01T04:22:45;96559.38;;;19.41
40624;BMP280;26325;48.594;11.650;2022-07-01T04:25:13;96564.41;;;19.50
40624;BMP280;26325;48.594;11.650;2022-07-01T04:27:41;96558.03;;;19.56
40624;BMP280;26325;48.594;11.650;2022-07-01T04:30:09;96557.50;;;19.54
40624;BMP280;26325;48.594;11.650;2022-07-01T04:32:37;96559.78;;;19.61
40624;BMP280;26325;48.594;11.650;2022-07-01T04:35:08;96565.28;;;19.59
40624;BMP280;26325;48.594;11.650;2022-07-01T04:37:37;96569.38;;;19.52
40624;BMP280;26325;48.594;11.650;2022-07-01T04:40:03;96565.66;;;19.53
40624;BMP280;26325;48.594;11.650;2022-07-01T04:42:28;96573.22;;;19.54
40624;BMP280;26325;48.594;11.650;2022-07-01T04:44:54;96573.22;;;19.54
40624;BMP280;26325;48.594;11.650;2022-07-01T04:47:19;96572.88;;;19.61
40624;BMP280;26325;48.594;11.650;2022-07-01T04:49:47;96573.63;;;19.61
40624;BMP280;26325;48.594;11.650;2022-07-01T04:52:13;96581.00;;;19.59
40624;BMP280;26325;48.594;11.650;2022-07-01T04:54:38;96578.19;;;19.56
40624;BMP280;26325;48.594;11.650;2022-07-01T04:57:04;96589.94;;;19.58
40624;BMP280;26325;48.594;11.650;2022-07-01T04:59:32;96592.91;;;19.65
40624;BMP280;26325;48.594;11.650;2022-07-01T05:01:57;96582.44;;;19.65
40624;BMP280;26325;48.594;11.650;2022-07-01T05:04:26;96592.13;;;19.65
40624;BMP280;26325;48.594;11.650;2022-07-01T05:06:55;96583.28;;;19.74
40624;BMP280;26325;48.594;11.650;2022-07-01T05:09:23;96573.00;;;19.77
40624;BMP280;26325;48.594;11.650;2022-07-01T05:11:52;96562.69;;;19.81
40624;BMP280;26325;48.594;11.650;2022-07-01T05:14:20;96570.22;;;19.95
40624;BMP280;26325;48.594;11.650;2022-07-01T05:16:45;96551.56;;;19.97
40624;BMP280;26325;48.594;11.650;2022-07-01T05:19:11;96544.72;;;20.09
40624;BMP280;26325;48.594;11.650;2022-07-01T05:21:55;96569.56;;;20.11
40624;BMP280;26325;48.594;11.650;2022-07-01T05:24:32;96572.81;;;20.17
40624;BMP280;26325;48.594;11.650;2022-07-01T05:27:00;96576.69;;;20.19
40624;BMP280;26325;48.594;11.650;2022-07-01T05:29:26;96575.56;;;20.12
40624;BMP280;26325;48.594;11.650;2022-07-01T05:31:52;96580.22;;;20.15
40624;BMP280;26325;48.594;11.650;2022-07-01T05:34:20;96586.56;;;20.22
40624;BMP280;26325;48.594;11.650;2022-07-01T05:36:47;96597.13;;;20.30
40624;BMP280;26325;48.594;11.650;2022-07-01T05:39:13;96607.75;;;20.25
40624;BMP280;26325;48.594;11.650;2022-07-01T05:41:38;96590.59;;;20.20
40624;BMP280;26325;48.594;11.650;2022-07-01T05:44:04;96611.66;;;20.15
40624;BMP280;26325;48.594;11.650;2022-07-01T05:46:32;96620.72;;;20.30
40624;BMP280;26325;48.594;11.650;2022-07-01T05:48:58;96614.72;;;20.30
40624;BMP280;26325;48.594;11.650;2022-07-01T05:51:25;96603.22;;;20.39
40624;BMP280;26325;48.594;11.650;2022-07-01T05:53:51;96610.97;;;20.44
40624;BMP280;26325;48.594;11.650;2022-07-01T05:56:19;96614.69;;;20.43
40624;BMP280;26325;48.594;11.650;2022-07-01T05:58:48;96607.63;;;20.52
40624;BMP280;26325;48.594;11.650;2022-07-01T06:01:13;96607.44;;;20.48
40624;BMP280;26325;48.594;11.650;2022-07-01T06:03:39;96611.31;;;20.51
40624;BMP280;26325;48.594;11.650;2022-07-01T06:06:06;96620.88;;;20.47
40624;BMP280;26325;48.594;11.650;2022-07-01T06:08:35;96632.56;;;20.41
40624;BMP280;26325;48.594;11.650;2022-07-01T06:11:01;96639.56;;;20.32
40624;BMP280;26325;48.594;11.650;2022-07-01T06:13:26;96639.00;;;20.22
40624;BMP280;26325;48.594;11.650;2022-07-01T06:15:54;96641.75;;;20.17
40624;BMP280;26325;48.594;11.650;2022-07-01T06:18:24;96649.41;;;20.27
40624;BMP280;26325;48.594;11.650;2022-07-01T06:20:54;96648.38;;;20.15
40624;BMP280;26325;48.594;11.650;2022-07-01T06:23:22;96658.50;;;20.08
40624;BMP280;26325;48.594;11.650;2022-07-01T06:25:49;96668.69;;;20.09
40624;BMP280;26325;48.594;11.650;2022-07-01T06:28:16;96665.00;;;20.10
40624;BMP280;26325;48.594;11.650;2022-07-01T06:30:42;96663.75;;;20.08
40624;BMP280;26325;48.594;11.650;2022-07-01T06:33:10;96665.78;;;20.11
40624;BMP280;26325;48.594;11.650;2022-07-01T06:35:35;96671.50;;;20.13
40624;BMP280;26325;48.594;11.650;2022-07-01T06:38:01;96672.59;;;19.99
40624;BMP280;26325;48.594;11.650;2022-07-01T06:40:26;96683.59;;;19.87
40624;BMP280;26325;48.594;11.650;2022-07-01T06:42:54;96672.88;;;19.97
40624;BMP280;26325;48.594;11.650;2022-07-01T06:45:20;96681.09;;;19.83
40624;BMP280;26325;48.594;11.650;2022-07-01T06:47:48;96677.13;;;19.45
40624;BMP280;26325;48.594;11.650;2022-07-01T06:50:16;96684.03;;;19.42
40624;BMP280;26325;48.594;11.650;2022-07-01T06:52:42;96692.94;;;19.41
40624;BMP280;26325;48.594;11.650;2022-07-01T06:55:11;96701.75;;;19.45
40624;BMP280;26325;48.594;11.650;2022-07-01T06:57:40;96700.22;;;19.44
40624;BMP280;26325;48.594;11.650;2022-07-01T07:00:09;96704.84;;;19.46
40624;BMP280;26325;48.594;11.650;2022-07-01T07:02:37;96704.75;;;19.38
40624;BMP280;26325;48.594;11.650;2022-07-01T07:05:05;96713.88;;;19.41
40624;BMP280;26325;48.594;11.650;2022-07-01T07:07:33;96703.50;;;19.49
40624;BMP280;26325;48.594;11.650;2022-07-01T07:09:58;96708.25;;;19.47
40624;BMP280;26325;48.594;11.650;2022-07-01T07:12:24;96714.28;;;19.34
40624;BMP280;26325;48.594;11.650;2022-07-01T07:14:50;96717.75;;;19.30
40624;BMP280;26325;48.594;11.650;2022-07-01T07:17:18;96716.38;;;19.19
40624;BMP280;26325;48.594;11.650;2022-07-01T07:19:46;96718.13;;;19.10
40624;BMP280;26325;48.594;11.650;2022-07-01T07:22:12;96733.00;;;18.84
40624;BMP280;26325;48.594;11.650;2022-07-01T07:24:44;96728.72;;;18.74
40624;BMP280;26325;48.594;11.650;2022-07-01T07:27:09;96726.63;;;18.40
40624;BMP280;26325;48.594;11.650;2022-07-01T07:29:35;96731.25;;;18.43
40624;BMP280;26325;48.594;11.650;2022-07-01T07:32:03;96741.03;;;18.38
40624;BMP280;26325;48.594;11.650;2022-07-01T07:34:31;96749.41;;;18.53
40624;BMP280;26325;48.594;11.650;2022-07-01T07:36:57;96752.41;;;18.29
40624;BMP280;26325;48.594;11.650;2022-07-01T07:39:24;96746.91;;;18.30
40624;BMP280;26325;48.594;11.650;2022-07-01T07:41:50;96747.72;;;18.44
40624;BMP280;26325;48.594;11.650;2022-07-01T07:44:16;96752.44;;;18.60
40624;BMP280;26325;48.594;11.650;2022-07-01T07:46:41;96748.88;;;18.38
40624;BMP280;26325;48.594;11.650;2022-07-01T07:49:06;96754.94;;;18.51
40624;BMP280;26325;48.594;11.650;2022-07-01T07:53:58;96765.91;;;18.35
40624;BMP280;26325;48.594;11.650;2022-07-01T07:56:29;96761.66;;;18.39
40624;BMP280;26325;48.594;11.650;2022-07-01T07:58:55;96753.19;;;18.47
40624;BMP280;26325;48.594;11.650;2022-07-01T08:01:23;96753.19;;;18.47
40624;BMP280;26325;48.594;11.650;2022-07-01T08:03:48;96746.53;;;18.54
40624;BMP280;26325;48.594;11.650;2022-07-01T08:06:17;96754.09;;;18.74
40624;BMP280;26325;48.594;11.650;2022-07-01T08:08:43;96754.41;;;18.86
40624;BMP280;26325;48.594;11.650;2022-07-01T08:11:08;96751.63;;;18.95
40624;BMP280;26325;48.594;11.650;2022-07-01T08:13:34;96756.56;;;18.97
40624;BMP280;26325;48.594;11.650;2022-07-01T08:15:59;96760.13;;;18.88
40624;BMP280;26325;48.594;11.650;2022-07-01T08:18:25;96766.16;;;18.88
40624;BMP280;26325;48.594;11.650;2022-07-01T08:20:51;96770.88;;;18.68
40624;BMP280;26325;48.594;11.650;2022-07-01T08:23:22;96776.59;;;18.70
40624;BMP280;26325;48.594;11.650;2022-07-01T08:25:51;96796.84;;;18.47
40624;BMP280;26325;48.594;11.650;2022-07-01T08:28:18;96796.50;;;18.53
40624;BMP280;26325;48.594;11.650;2022-07-01T08:30:44;96797.13;;;18.27
40624;BMP280;26325;48.594;11.650;2022-07-01T08:33:13;96800.13;;;18.16
40624;BMP280;26325;48.594;11.650;2022-07-01T08:35:39;96804.91;;;18.32
40624;BMP280;26325;48.594;11.650;2022-07-01T08:38:06;96817.81;;;18.24
40624;BMP280;26325;48.594;11.650;2022-07-01T08:40:32;96824.69;;;18.38
40624;BMP280;26325;48.594;11.650;2022-07-01T08:43:03;96822.22;;;18.28
40624;BMP280;26325;48.594;11.650;2022-07-01T08:45:35;96825.47;;;18.56
40624;BMP280;26325;48.594;11.650;2022-07-01T08:48:04;96843.06;;;18.51
40624;BMP280;26325;48.594;11.650;2022-07-01T08:50:34;96840.25;;;18.48
40624;BMP280;26325;48.594;11.650;2022-07-01T08:55:31;96849.66;;;18.49
40624;BMP280;26325;48.594;11.650;2022-07-01T08:57:58;96858.75;;;18.51
40624;BMP280;26325;48.594;11.650;2022-07-01T09:00:32;96859.81;;;18.68
40624;BMP280;26325;48.594;11.650;2022-07-01T09:03:03;96864.00;;;18.69
40624;BMP280;26325;48.594;11.650;2022-07-01T09:05:31;96866.28;;;18.75
40624;BMP280;26325;48.594;11.650;2022-07-01T09:08:02;96866.41;;;18.66
40624;BMP280;26325;48.594;11.650;2022-07-01T09:10:29;96864.47;;;18.53
40624;BMP280;26325;48.594;11.650;2022-07-01T09:13:12;96869.34;;;18.41
40624;BMP280;26325;48.594;11.650;2022-07-01T09:15:40;96862.59;;;18.40
40624;BMP280;26325;48.594;11.650;2022-07-01T09:18:16;96865.75;;;18.37
40624;BMP280;26325;48.594;11.650;2022-07-01T09:20:46;96847.72;;;18.36
40624;BMP280;26325;48.594;11.650;2022-07-01T09:23:21;96847.59;;;18.64
40624;BMP280;26325;48.594;11.650;2022-07-01T09:25:50;96855.22;;;18.60
40624;BMP280;26325;48.594;11.650;2022-07-01T09:28:23;96866.81;;;18.36
40624;BMP280;26325;48.594;11.650;2022-07-01T09:30:54;96866.88;;;18.31
40624;BMP280;26325;48.594;11.650;2022-07-01T09:33:25;96860.81;;;18.54
40624;BMP280;26325;48.594;11.650;2022-07-01T09:35:57;96856.34;;;18.36
40624;BMP280;26325;48.594;11.650;2022-07-01T09:38:27;96854.34;;;18.29
40624;BMP280;26325;48.594;11.650;2022-07-01T09:41:03;96872.78;;;18.19
40624;BMP280;26325;48.594;11.650;2022-07-01T09:43:33;96873.72;;;18.28
40624;BMP280;26325;48.594;11.650;2022-07-01T09:46:09;96878.50;;;18.21
40624;BMP280;26325;48.594;11.650;2022-07-01T09:51:08;96853.22;;;18.34
40624;BMP280;26325;48.594;11.650;2022-07-01T09:53:34;96860.78;;;18.36
40624;BMP280;26325;48.594;11.650;2022-07-01T09:56:00;96852.97;;;18.54
40624;BMP280;26325;48.594;11.650;2022-07-01T09:58:28;96857.00;;;18.65
40624;BMP280;26325;48.594;11.650;2022-07-01T10:01:00;96863.06;;;18.83
40624;BMP280;26325;48.594;11.650;2022-07-01T10:03:26;96866.78;;;18.77
40624;BMP280;26325;48.594;11.650;2022-07-01T10:06:11;96865.44;;;18.80
40624;BMP280;26325;48.594;11.650;2022-07-01T10:14:07;96873.38;;;18.52
40624;BMP280;26325;48.594;11.650;2022-07-01T10:16:34;96878.22;;;18.63
40624;BMP280;26325;48.594;11.650;2022-07-01T10:21:46;96880.03;;;18.63
40624;BMP280;26325;48.594;11.650;2022-07-01T10:24:16;96883.09;;;18.69
40624;BMP280;26325;48.594;11.650;2022-07-01T10:26:43;96890.31;;;18.77
40624;BMP280;26325;48.594;11.650;2022-07-01T10:29:31;96908.72;;;18.72
40624;BMP280;26325;48.594;11.650;2022-07-01T10:32:08;96903.03;;;18.66
40624;BMP280;26325;48.594;11.650;2022-07-01T10:34:41;96914.28;;;18.66
40624;BMP280;26325;48.594;11.650;2022-07-01T10:37:11;96912.72;;;18.65
40624;BMP280;26325;48.594;11.650;2022-07-01T10:40:09;96926.66;;;18.38
40624;BMP280;26325;48.594;11.650;2022-07-01T10:42:58;96924.94;;;18.29
40624;BMP280;26325;48.594;11.650;2022-07-01T10:45:24;96936.91;;;18.12
40624;BMP280;26325;48.594;11.650;2022-07-01T10:47:49;96939.50;;;17.84
40624;BMP280;26325;48.594;11.650;2022-07-01T10:50:37;96933.66;;;18.19
40624;BMP280;26325;48.594;11.650;2022-07-01T10:53:04;96922.00;;;18.12
40624;BMP280;26325;48.594;11.650;2022-07-01T10:55:44;96925.19;;;18.32
40624;BMP280;26325;48.594;11.650;2022-07-01T10:58:12;96936.13;;;18.11
40624;BMP280;26325;48.594;11.650;2022-07-01T11:00:46;96925.66;;;18.11
40624;BMP280;26325;48.594;11.650;2022-07-01T11:03:17;96935.59;;;17.86
40624;BMP280;26325;48.594;11.650;2022-07-01T11:05:46;96931.16;;;17.82
40624;BMP280;26325;48.594;11.650;2022-07-01T11:08:12;96926.09;;;17.95
40624;BMP280;26325;48.594;11.650;2022-07-01T11:10:41;96933.97;;;17.90
40624;BMP280;26325;48.594;11.650;2022-07-01T11:13:09;96935.78;;;17.94
40624;BMP280;26325;48.594;11.650;2022-07-01T11:15:38;96946.69;;;18.01
40624;BMP280;26325;48.594;11.650;2022-07-01T11:18:03;96938.50;;;18.08
40624;BMP280;26325;48.594;11.650;2022-07-01T11:20:33;96935.28;;;18.15
40624;BMP280;26325;48.594;11.650;2022-07-01T11:23:01;96944.84;;;18.25
40624;BMP280;26325;48.594;11.650;2022-07-01T11:25:27;96949.34;;;17.96
40624;BMP280;26325;48.594;11.650;2022-07-01T11:27:57;96964.16;;;18.06
40624;BMP280;26325;48.594;11.650;2022-07-01T11:30:23;96954.34;;;18.16
40624;BMP280;26325;48.594;11.650;2022-07-01T11:32:52;96960.53;;;18.02
40624;BMP280;26325;48.594;11.650;2022-07-01T11:35:24;96951.56;;;17.80
40624;BMP280;26325;48.594;11.650;2022-07-01T11:38:29;96959.56;;;18.16
40624;BMP280;26325;48.594;11.650;2022-07-01T11:41:22;96961.25;;;17.79
40624;BMP280;26325;48.594;11.650;2022-07-01T11:43:48;96963.69;;;17.99
40624;BMP280;26325;48.594;11.650;2022-07-01T11:46:14;96962.63;;;18.00
40624;BMP280;26325;48.594;11.650;2022-07-01T11:48:46;96966.38;;;18.17
40624;BMP280;26325;48.594;11.650;2022-07-01T11:51:21;96943.78;;;18.26
40624;BMP280;26325;48.594;11.650;2022-07-01T11:53:53;96938.66;;;18.16
40624;BMP280;26325;48.594;11.650;2022-07-01T11:56:30;96942.72;;;18.27
40624;BMP280;26325;48.594;11.650;2022-07-01T11:58:57;96948.47;;;18.29
40624;BMP280;26325;48.594;11.650;2022-07-01T12:01:33;96944.22;;;18.32
40624;BMP280;26325;48.594;11.650;2022-07-01T12:04:03;96928.38;;;18.24
40624;BMP280;26325;48.594;11.650;2022-07-01T12:09:02;96953.09;;;17.86
40624;BMP280;26325;48.594;11.650;2022-07-01T12:11:28;96968.78;;;17.86
40624;BMP280;26325;48.594;11.650;2022-07-01T12:14:40;96971.63;;;17.89
40624;BMP280;26325;48.594;11.650;2022-07-01T12:17:06;96956.81;;;17.80
40624;BMP280;26325;48.594;11.650;2022-07-01T12:19:44;96953.81;;;17.63
40624;BMP280;26325;48.594;11.650;2022-07-01T12:22:20;96967.53;;;17.46
40624;BMP280;26325;48.594;11.650;2022-07-01T12:24:47;96982.13;;;17.47
40624;BMP280;26325;48.594;11.650;2022-07-01T12:27:13;96974.78;;;17.54
40624;BMP280;26325;48.594;11.650;2022-07-01T12:32:13;96987.53;;;17.60
40624;BMP280;26325;48.594;11.650;2022-07-01T12:34:57;96975.09;;;17.80
40624;BMP280;26325;48.594;11.650;2022-07-01T12:37:38;96979.69;;;17.92
40624;BMP280;26325;48.594;11.650;2022-07-01T12:42:44;96989.97;;;18.07
40624;BMP280;26325;48.594;11.650;2022-07-01T12:45:15;97022.53;;;17.92
40624;BMP280;26325;48.594;11.650;2022-07-01T12:47:49;97046.06;;;17.92
40624;BMP280;26325;48.594;11.650;2022-07-01T12:50:22;97064.66;;;17.85
40624;BMP280;26325;48.594;11.650;2022-07-01T12:55:27;97059.78;;;17.32
40624;BMP280;26325;48.594;11.650;2022-07-01T12:57:55;97063.22;;;17.27
40624;BMP280;26325;48.594;11.650;2022-07-01T13:00:24;97071.47;;;17.39
40624;BMP280;26325;48.594;11.650;2022-07-01T13:02:54;97072.13;;;17.16
40624;BMP280;26325;48.594;11.650;2022-07-01T13:05:22;97061.34;;;17.33
40624;BMP280;26325;48.594;11.650;2022-07-01T13:07:52;97057.41;;;17.35
40624;BMP280;26325;48.594;11.650;2022-07-01T13:10:19;97064.16;;;17.41
40624;BMP280;26325;48.594;11.650;2022-07-01T13:12:48;97070.06;;;17.61
40624;BMP280;26325;48.594;11.650;2022-07-01T13:15:18;97079.47;;;17.57
40624;BMP280;26325;48.594;11.650;2022-07-01T13:17:44;97089.28;;;17.32
40624;BMP280;26325;48.594;11.650;2022-07-01T13:20:12;97069.22;;;17.28
40624;BMP280;26325;48.594;11.650;2022-07-01T13:22:41;97072.94;;;17.12
40624;BMP280;26325;48.594;11.650;2022-07-01T13:25:09;97079.38;;;17.29
40624;BMP280;26325;48.594;11.650;2022-07-01T13:27:36;97073.69;;;17.17
40624;BMP280;26325;48.594;11.650;2022-07-01T13:30:07;97074.53;;;17.08
40624;BMP280;26325;48.594;11.650;2022-07-01T13:32:34;97074.78;;;17.07
40624;BMP280;26325;48.594;11.650;2022-07-01T13:35:00;97068.53;;;17.08
40624;BMP280;26325;48.594;11.650;2022-07-01T13:37:29;97044.16;;;17.22
40624;BMP280;26325;48.594;11.650;2022-07-01T13:39:55;97034.56;;;17.13
40624;BMP280;26325;48.594;11.650;2022-07-01T13:42:23;97028.13;;;16.96
40624;BMP280;26325;48.594;11.650;2022-07-01T13:44:51;96990.56;;;16.92
40624;BMP280;26325;48.594;11.650;2022-07-01T13:47:17;96966.50;;;17.09
40624;BMP280;26325;48.594;11.650;2022-07-01T13:49:43;96991.22;;;17.16
40624;BMP280;26325;48.594;11.650;2022-07-01T13:52:11;96990.19;;;17.13
40624;BMP280;26325;48.594;11.650;2022-07-01T13:54:38;97015.28;;;17.09
40624;BMP280;26325;48.594;11.650;2022-07-01T13:57:04;97026.31;;;17.01
40624;BMP280;26325;48.594;11.650;2022-07-01T13:59:38;97019.63;;;17.23
40624;BMP280;26325;48.594;11.650;2022-07-01T14:02:05;97031.63;;;17.29
40624;BMP280;26325;48.594;11.650;2022-07-01T14:04:36;97038.31;;;17.44
40624;BMP280;26325;48.594;11.650;2022-07-01T14:07:05;97050.38;;;17.35
40624;BMP280;26325;48.594;11.650;2022-07-01T14:09:34;97053.34;;;17.19
40624;BMP280;26325;48.594;11.650;2022-07-01T14:12:02;97066.41;;;17.19
40624;BMP280;26325;48.594;11.650;2022-07-01T14:14:30;97072.44;;;17.10
40624;BMP280;26325;48.594;11.650;2022-07-01T14:16:55;97079.97;;;17.16
40624;BMP280;26325;48.594;11.650;2022-07-01T14:19:24;97094.31;;;17.19
40624;BMP280;26325;48.594;11.650;2022-07-01T14:21:49;97093.50;;;17.23
40624;BMP280;26325;48.594;11.650;2022-07-01T14:24:18;97078.09;;;17.22
40624;BMP280;26325;48.594;11.650;2022-07-01T14:26:44;97066.41;;;17.19
40624;BMP280;26325;48.594;11.650;2022-07-01T14:29:12;97060.63;;;17.22
40624;BMP280;26325;48.594;11.650;2022-07-01T14:31:41;97049.69;;;17.16
40624;BMP280;26325;48.594;11.650;2022-07-01T14:34:08;97071.66;;;17.05
40624;BMP280;26325;48.594;11.650;2022-07-01T14:36:36;97098.28;;;17.12